sensor_id;sensor_type;location;lat;lon;timestamp;P1;durP1;ratioP1;P2;durP2;ratioP2
4835;SDS011;66719;51.226;6.902;2023-02-24T00:01:49;28.33;;;6.20;;
4835;SDS011;66719;51.226;6.902;2023-02-24T00:04:18;29.20;;;5.87;;
4835;SDS011;66719;51.226;6.902;2023-02-24T00:06:46;35.33;;;7.13;;
4835;SDS011;66719;51.226;6.902;2023-02-24T00:09:17;31.93;;;5.87;;
4835;SDS011;66719;51.226;6.902;2023-02-24T00:11:47;29.63;;;6.77;;
4835;SDS011;66719;51.226;6.902;2023-02-24T00:14:25;34.87;;;6.20;;
4835;SDS011;66719;51.226;6.902;2023-02-24T00:16:54;37.23;;;7.60;;
4835;SDS011;66719;51.226;6.902;2023-02-24T00:19:21;35.07;;;6.23;;
4835;SDS011;66719;51.226;6.902;2023-02-24T00:21:50;35.60;;;6.73;;
4835;SDS011;66719;51.226;6.902;2023-02-24T00:24:17;28.40;;;7.70;;
4835;SDS011;66719;51.226;6.902;2023-02-24T00:26:44;28.30;;;7.73;;
4835;SDS011;66719;51.226;6.902;2023-02-24T00:29:13;34.30;;;9.50;;
4835;SDS011;66719;51.226;6.902;2023-02-24T00:31:40;37.93;;;11.83;;
4835;SDS011;66719;51.226;6.902;2023-02-24T00:34:08;28.23;;;9.90;;
4835;SDS011;66719;51.226;6.902;2023-02-24T00:36:35;32.73;;;9.57;;
4835;SDS011;66719;51.226;6.902;2023-02-24T00:39:03;41.30;;;11.53;;
4835;SDS011;66719;51.226;6.902;2023-02-24T00:41:36;37.77;;;11.13;;
4835;SDS011;66719;51.226;6.902;2023-02-24T00:44:06;33.37;;;10.20;;
4835;SDS011;66719;51.226;6.902;2023-02-24T00:49:04;33.30;;;10.00;;
4835;SDS011;66719;51.226;6.902;2023-02-24T00:51:39;41.10;;;10.17;;
4835;SDS011;66719;51.226;6.902;2023-02-24T00:54:07;33.60;;;10.60;;
4835;SDS011;66719;51.226;6.902;2023-02-24T00:56:35;34.80;;;9.50;;
4835;SDS011;66719;51.226;6.902;2023-02-24T00:59:02;32.27;;;10.60;;
4835;SDS011;66719;51.226;6.902;2023-02-24T01:01:30;38.93;;;10.70;;
4835;SDS011;66719;51.226;6.902;2023-02-24T01:03:59;32.10;;;10.87;;
4835;SDS011;66719;51.226;6.902;2023-02-24T01:06:40;32.97;;;9.47;;
4835;SDS011;66719;51.226;6.902;2023-02-24T01:09:12;35.93;;;11.20;;
4835;SDS011;66719;51.226;6.902;2023-02-24T01:11:41;33.20;;;10.07;;
4835;SDS011;66719;51.226;6.902;2023-02-24T01:14:47;30.33;;;9.57;;
4835;SDS011;66719;51.226;6.902;2023-02-24T01:17:16;43.77;;;10.20;;
4835;SDS011;66719;51.226;6.902;2023-02-24T01:19:44;34.73;;;10.00;;
4835;SDS011;66719;51.226;6.902;2023-02-24T01:22:14;40.87;;;10.70;;
4835;SDS011;66719;51.226;6.902;2023-02-24T01:24:42;39.90;;;10.73;;
4835;SDS011;66719;51.226;6.902;2023-02-24T01:27:10;38.10;;;10.77;;
4835;SDS011;66719;51.226;6.902;2023-02-24T01:29:38;31.47;;;10.13;;
4835;SDS011;66719;51.226;6.902;2023-02-24T01:32:05;34.93;;;10.17;;
4835;SDS011;66719;51.226;6.902;2023-02-24T01:34:32;40.00;;;11.43;;
4835;SDS011;66719;51.226;6.902;2023-02-24T01:37:00;37.57;;;11.33;;
4835;SDS011;66719;51.226;6.902;2023-02-24T01:39:27;37.97;;;10.73;;
4835;SDS011;66719;51.226;6.902;2023-02-24T01:41:53;41.00;;;10.43;;
4835;SDS011;66719;51.226;6.902;2023-02-24T01:46:50;33.97;;;10.20;;
4835;SDS011;66719;51.226;6.902;2023-02-24T01:49:20;38.10;;;8.73;;
4835;SDS011;66719;51.226;6.902;2023-02-24T01:51:56;32.60;;;9.17;;
4835;SDS011;66719;51.226;6.902;2023-02-24T01:54:29;34.30;;;8.53;;
4835;SDS011;66719;51.226;6.902;2023-02-24T01:56:59;38.37;;;9.10;;
4835;SDS011;66719;51.226;6.902;2023-02-24T01:59:27;36.07;;;7.60;;
4835;SDS011;66719;51.226;6.902;2023-02-24T02:01:55;27.63;;;7.00;;
4835;SDS011;66719;51.226;6.902;2023-02-24T02:04:39;36.30;;;7.17;;
4835;SDS011;66719;51.226;6.902;2023-02-24T02:07:10;35.97;;;6.17;;
4835;SDS011;66719;51.226;6.902;2023-02-24T02:09:39;36.53;;;6.43;;
4835;SDS011;66719;51.226;6.902;2023-02-24T02:12:09;29.83;;;6.20;;
4835;SDS011;66719;51.226;6.902;2023-02-24T02:14:37;44.37;;;6.40;;
4835;SDS011;66719;51.226;6.902;2023-02-24T02:23:25;35.30;;;6.07;;
4835;SDS011;66719;51.226;6.902;2023-02-24T02:37:01;35.87;;;5.13;;
4835;SDS011;66719;51.226;6.902;2023-02-24T02:44:54;36.83;;;5.80;;
4835;SDS011;66719;51.226;6.902;2023-02-24T02:47:57;27.07;;;6.03;;
4835;SDS011;66719;51.226;6.902;2023-02-24T02:50:44;30.90;;;5.80;;
4835;SDS011;66719;51.226;6.902;2023-02-24T02:53:50;31.17;;;5.40;;
4835;SDS011;66719;51.226;6.902;2023-02-24T02:56:26;24.93;;;4.90;;
4835;SDS011;66719;51.226;6.902;2023-02-24T02:58:57;39.87;;;4.97;;
4835;SDS011;66719;51.226;6.902;2023-02-24T03:01:26;30.13;;;4.90;;
4835;SDS011;66719;51.226;6.902;2023-02-24T03:04:01;29.17;;;4.77;;
4835;SDS011;66719;51.226;6.902;2023-02-24T03:06:32;31.90;;;4.50;;
4835;SDS011;66719;51.226;6.902;2023-02-24T03:09:05;28.43;;;4.30;;
4835;SDS011;66719;51.226;6.902;2023-02-24T03:11:41;35.30;;;4.80;;
4835;SDS011;66719;51.226;6.902;2023-02-24T03:14:14;36.40;;;5.50;;
4835;SDS011;66719;51.226;6.902;2023-02-24T03:16:44;26.10;;;5.27;;
4835;SDS011;66719;51.226;6.902;2023-02-24T03:19:15;38.87;;;5.10;;
4835;SDS011;66719;51.226;6.902;2023-02-24T03:21:47;29.27;;;4.93;;
4835;SDS011;66719;51.226;6.902;2023-02-24T03:24:22;32.83;;;4.77;;
4835;SDS011;66719;51.226;6.902;2023-02-24T03:26:50;39.50;;;5.00;;
4835;SDS011;66719;51.226;6.902;2023-02-24T03:29:46;29.03;;;4.93;;
4835;SDS011;66719;51.226;6.902;2023-02-24T03:32:23;33.27;;;4.50;;
4835;SDS011;66719;51.226;6.902;2023-02-24T03:37:24;28.37;;;5.03;;
4835;SDS011;66719;51.226;6.902;2023-02-24T03:39:53;32.63;;;5.40;;
4835;SDS011;66719;51.226;6.902;2023-02-24T03:42:23;30.67;;;4.70;;
4835;SDS011;66719;51.226;6.902;2023-02-24T03:44:53;26.10;;;4.73;;
4835;SDS011;66719;51.226;6.902;2023-02-24T03:47:23;34.50;;;5.20;;
4835;SDS011;66719;51.226;6.902;2023-02-24T03:49:50;24.73;;;6.00;;
4835;SDS011;66719;51.226;6.902;2023-02-24T03:52:25;25.67;;;4.20;;
4835;SDS011;66719;51.226;6.902;2023-02-24T03:55:03;25.07;;;4.07;;
4835;SDS011;66719;51.226;6.902;2023-02-24T04:00:40;32.27;;;4.90;;
4835;SDS011;66719;51.226;6.902;2023-02-24T04:08:46;32.33;;;5.17;;
4835;SDS011;66719;51.226;6.902;2023-02-24T04:14:22;23.90;;;4.27;;
4835;SDS011;66719;51.226;6.902;2023-02-24T04:16:56;20.60;;;3.73;;
4835;SDS011;66719;51.226;6.902;2023-02-24T04:19:26;29.50;;;4.47;;
4835;SDS011;66719;51.226;6.902;2023-02-24T04:21:57;20.40;;;4.60;;
4835;SDS011;66719;51.226;6.902;2023-02-24T04:24:26;26.37;;;4.90;;
4835;SDS011;66719;51.226;6.902;2023-02-24T04:26:57;24.40;;;4.37;;
4835;SDS011;66719;51.226;6.902;2023-02-24T04:29:27;31.83;;;4.83;;
4835;SDS011;66719;51.226;6.902;2023-02-24T04:32:07;26.47;;;4.80;;
4835;SDS011;66719;51.226;6.902;2023-02-24T04:34:37;23.13;;;4.33;;
4835;SDS011;66719;51.226;6.902;2023-02-24T04:37:05;28.07;;;5.00;;
4835;SDS011;66719;51.226;6.902;2023-02-24T04:39:32;30.23;;;6.17;;
4835;SDS011;66719;51.226;6.902;2023-02-24T04:41:58;29.87;;;5.77;;
4835;SDS011;66719;51.226;6.902;2023-02-24T04:44:26;30.40;;;5.63;;
4835;SDS011;66719;51.226;6.902;2023-02-24T04:46:53;24.83;;;5.67;;
4835;SDS011;66719;51.226;6.902;2023-02-24T04:49:21;29.37;;;5.70;;
4835;SDS011;66719;51.226;6.902;2023-02-24T04:51:47;37.93;;;7.33;;
4835;SDS011;66719;51.226;6.902;2023-02-24T04:54:15;29.40;;;6.77;;
4835;SDS011;66719;51.226;6.902;2023-02-24T04:56:45;42.40;;;6.50;;
4835;SDS011;66719;51.226;6.902;2023-02-24T04:59:14;32.10;;;6.27;;
4835;SDS011;66719;51.226;6.902;2023-02-24T05:01:41;41.07;;;7.10;;
4835;SDS011;66719;51.226;6.902;2023-02-24T05:04:10;23.60;;;6.23;;
4835;SDS011;66719;51.226;6.902;2023-02-24T05:06:39;36.53;;;6.47;;
4835;SDS011;66719;51.226;6.902;2023-02-24T05:09:09;34.13;;;7.50;;
4835;SDS011;66719;51.226;6.902;2023-02-24T05:11:40;44.23;;;8.47;;
4835;SDS011;66719;51.226;6.902;2023-02-24T05:14:08;32.73;;;7.07;;
4835;SDS011;66719;51.226;6.902;2023-02-24T05:16:43;31.70;;;6.20;;
4835;SDS011;66719;51.226;6.902;2023-02-24T05:19:12;28.70;;;6.10;;
4835;SDS011;66719;51.226;6.902;2023-02-24T05:22:00;27.00;;;6.40;;
4835;SDS011;66719;51.226;6.902;2023-02-24T05:24:32;33.23;;;8.20;;
4835;SDS011;66719;51.226;6.902;2023-02-24T05:26:59;37.03;;;5.97;;
4835;SDS011;66719;51.226;6.902;2023-02-24T05:29:30;37.20;;;7.67;;
4835;SDS011;66719;51.226;6.902;2023-02-24T05:31:58;24.23;;;6.20;;
4835;SDS011;66719;51.226;6.902;2023-02-24T05:34:26;27.07;;;6.70;;
4835;SDS011;66719;51.226;6.902;2023-02-24T05:36:56;34.40;;;6.70;;
4835;SDS011;66719;51.226;6.902;2023-02-24T05:39:24;45.57;;;11.63;;
4835;SDS011;66719;51.226;6.902;2023-02-24T05:41:54;28.60;;;6.40;;
4835;SDS011;66719;51.226;6.902;2023-02-24T05:44:23;29.33;;;6.23;;
4835;SDS011;66719;51.226;6.902;2023-02-24T05:46:52;40.80;;;6.87;;
4835;SDS011;66719;51.226;6.902;2023-02-24T05:49:25;43.20;;;8.17;;
4835;SDS011;66719;51.226;6.902;2023-02-24T05:51:55;32.73;;;7.00;;
4835;SDS011;66719;51.226;6.902;2023-02-24T05:54:26;29.73;;;6.00;;
4835;SDS011;66719;51.226;6.902;2023-02-24T05:57:02;36.80;;;6.90;;
4835;SDS011;66719;51.226;6.902;2023-02-24T05:59:32;33.07;;;7.63;;
4835;SDS011;66719;51.226;6.902;2023-02-24T06:01:59;31.30;;;6.30;;
4835;SDS011;66719;51.226;6.902;2023-02-24T06:04:32;31.10;;;6.87;;
4835;SDS011;66719;51.226;6.902;2023-02-24T06:07:12;30.20;;;6.80;;
4835;SDS011;66719;51.226;6.902;2023-02-24T06:09:48;22.93;;;7.10;;
4835;SDS011;66719;51.226;6.902;2023-02-24T06:12:16;32.60;;;7.33;;
4835;SDS011;66719;51.226;6.902;2023-02-24T06:14:43;40.27;;;7.77;;
4835;SDS011;66719;51.226;6.902;2023-02-24T06:17:11;43.90;;;6.20;;
4835;SDS011;66719;51.226;6.902;2023-02-24T06:19:40;33.00;;;6.50;;
4835;SDS011;66719;51.226;6.902;2023-02-24T06:22:06;26.90;;;7.20;;
4835;SDS011;66719;51.226;6.902;2023-02-24T06:24:37;26.93;;;5.73;;
4835;SDS011;66719;51.226;6.902;2023-02-24T06:27:04;31.57;;;6.13;;
4835;SDS011;66719;51.226;6.902;2023-02-24T06:29:46;28.03;;;6.37;;
4835;SDS011;66719;51.226;6.902;2023-02-24T06:32:17;31.57;;;5.30;;
4835;SDS011;66719;51.226;6.902;2023-02-24T06:34:45;24.60;;;5.20;;
4835;SDS011;66719;51.226;6.902;2023-02-24T06:37:13;26.60;;;4.97;;
4835;SDS011;66719;51.226;6.902;2023-02-24T06:39:40;27.83;;;5.70;;
4835;SDS011;66719;51.226;6.902;2023-02-24T06:42:08;32.70;;;7.07;;
4835;SDS011;66719;51.226;6.902;2023-02-24T06:44:36;26.37;;;5.50;;
4835;SDS011;66719;51.226;6.902;2023-02-24T06:47:05;23.83;;;4.80;;
4835;SDS011;66719;51.226;6.902;2023-02-24T06:49:33;27.80;;;5.20;;
4835;SDS011;66719;51.226;6.902;2023-02-24T06:51:59;19.00;;;4.00;;
4835;SDS011;66719;51.226;6.902;2023-02-24T06:54:26;21.77;;;4.80;;
4835;SDS011;66719;51.226;6.902;2023-02-24T06:56:57;28.83;;;4.90;;
4835;SDS011;66719;51.226;6.902;2023-02-24T06:59:24;27.50;;;5.20;;
4835;SDS011;66719;51.226;6.902;2023-02-24T07:01:57;28.27;;;5.50;;
4835;SDS011;66719;51.226;6.902;2023-02-24T07:04:25;24.77;;;4.07;;
4835;SDS011;66719;51.226;6.902;2023-02-24T07:06:56;27.20;;;4.97;;
4835;SDS011;66719;51.226;6.902;2023-02-24T07:09:28;21.77;;;5.40;;
4835;SDS011;66719;51.226;6.902;2023-02-24T07:11:56;24.90;;;4.27;;
4835;SDS011;66719;51.226;6.902;2023-02-24T07:14:25;26.03;;;4.83;;
4835;SDS011;66719;51.226;6.902;2023-02-24T07:16:53;17.77;;;4.20;;
4835;SDS011;66719;51.226;6.902;2023-02-24T07:19:22;22.20;;;4.70;;
4835;SDS011;66719;51.226;6.902;2023-02-24T07:21:53;21.47;;;4.03;;
4835;SDS011;66719;51.226;6.902;2023-02-24T07:24:30;21.33;;;5.07;;
4835;SDS011;66719;51.226;6.902;2023-02-24T07:27:00;30.20;;;4.97;;
4835;SDS011;66719;51.226;6.902;2023-02-24T07:29:29;26.33;;;4.73;;
4835;SDS011;66719;51.226;6.902;2023-02-24T07:31:58;26.33;;;5.37;;
4835;SDS011;66719;51.226;6.902;2023-02-24T07:34:26;18.90;;;4.40;;
4835;SDS011;66719;51.226;6.902;2023-02-24T07:36:53;22.97;;;4.00;;
4835;SDS011;66719;51.226;6.902;2023-02-24T07:39:21;21.47;;;5.00;;
4835;SDS011;66719;51.226;6.902;2023-02-24T07:41:49;20.53;;;3.67;;
4835;SDS011;66719;51.226;6.902;2023-02-24T07:44:18;17.23;;;4.17;;
4835;SDS011;66719;51.226;6.902;2023-02-24T07:46:46;26.03;;;4.20;;
4835;SDS011;66719;51.226;6.902;2023-02-24T07:49:23;18.60;;;3.63;;
4835;SDS011;66719;51.226;6.902;2023-02-24T07:51:52;25.47;;;4.63;;
4835;SDS011;66719;51.226;6.902;2023-02-24T07:54:23;18.10;;;3.60;;
4835;SDS011;66719;51.226;6.902;2023-02-24T07:56:53;21.20;;;4.73;;
4835;SDS011;66719;51.226;6.902;2023-02-24T07:59:27;22.20;;;4.90;;
4835;SDS011;66719;51.226;6.902;2023-02-24T08:01:55;27.90;;;4.57;;
4835;SDS011;66719;51.226;6.902;2023-02-24T08:04:24;24.63;;;4.13;;
4835;SDS011;66719;51.226;6.902;2023-02-24T08:06:55;24.07;;;5.07;;
4835;SDS011;66719;51.226;6.902;2023-02-24T08:09:28;20.40;;;3.90;;
4835;SDS011;66719;51.226;6.902;2023-02-24T08:14:43;21.83;;;4.17;;
4835;SDS011;66719;51.226;6.902;2023-02-24T08:17:16;24.80;;;4.60;;
4835;SDS011;66719;51.226;6.902;2023-02-24T08:19:46;25.70;;;4.27;;
4835;SDS011;66719;51.226;6.902;2023-02-24T08:22:14;29.97;;;4.57;;
4835;SDS011;66719;51.226;6.902;2023-02-24T08:24:54;21.37;;;4.80;;
4835;SDS011;66719;51.226;6.902;2023-02-24T08:27:26;23.93;;;3.73;;
4835;SDS011;66719;51.226;6.902;2023-02-24T08:29:57;20.20;;;4.90;;
4835;SDS011;66719;51.226;6.902;2023-02-24T08:32:26;16.50;;;4.83;;
4835;SDS011;66719;51.226;6.902;2023-02-24T08:34:59;25.13;;;5.33;;
4835;SDS011;66719;51.226;6.902;2023-02-24T08:37:32;18.37;;;4.50;;
4835;SDS011;66719;51.226;6.902;2023-02-24T08:40:09;19.80;;;4.57;;
4835;SDS011;66719;51.226;6.902;2023-02-24T08:42:59;21.97;;;5.27;;
4835;SDS011;66719;51.226;6.902;2023-02-24T08:48:44;25.40;;;4.77;;
4835;SDS011;66719;51.226;6.902;2023-02-24T08:54:00;19.70;;;4.67;;
4835;SDS011;66719;51.226;6.902;2023-02-24T08:56:30;18.17;;;4.60;;
4835;SDS011;66719;51.226;6.902;2023-02-24T08:59:04;20.43;;;4.67;;
4835;SDS011;66719;51.226;6.902;2023-02-24T09:01:33;27.17;;;5.60;;
4835;SDS011;66719;51.226;6.902;2023-02-24T09:04:07;27.13;;;5.37;;
4835;SDS011;66719;51.226;6.902;2023-02-24T09:09:36;21.93;;;4.37;;
4835;SDS011;66719;51.226;6.902;2023-02-24T09:12:07;18.93;;;5.20;;
4835;SDS011;66719;51.226;6.902;2023-02-24T09:14:42;20.80;;;4.70;;
4835;SDS011;66719;51.226;6.902;2023-02-24T09:17:11;22.70;;;4.43;;
4835;SDS011;66719;51.226;6.902;2023-02-24T09:19:41;27.97;;;5.17;;
4835;SDS011;66719;51.226;6.902;2023-02-24T09:22:12;20.27;;;4.97;;
4835;SDS011;66719;51.226;6.902;2023-02-24T09:24:46;23.70;;;4.57;;
4835;SDS011;66719;51.226;6.902;2023-02-24T09:27:16;22.70;;;3.67;;
4835;SDS011;66719;51.226;6.902;2023-02-24T09:29:42;21.10;;;4.20;;
4835;SDS011;66719;51.226;6.902;2023-02-24T09:32:14;24.77;;;4.50;;
4835;SDS011;66719;51.226;6.902;2023-02-24T09:34:41;24.17;;;5.07;;
4835;SDS011;66719;51.226;6.902;2023-02-24T09:37:11;24.13;;;4.30;;
4835;SDS011;66719;51.226;6.902;2023-02-24T09:39:52;23.50;;;3.53;;
4835;SDS011;66719;51.226;6.902;2023-02-24T09:42:26;24.60;;;4.43;;
4835;SDS011;66719;51.226;6.902;2023-02-24T09:45:04;21.53;;;3.93;;
4835;SDS011;66719;51.226;6.902;2023-02-24T09:47:38;24.30;;;3.60;;
4835;SDS011;66719;51.226;6.902;2023-02-24T09:53:23;24.90;;;4.60;;
4835;SDS011;66719;51.226;6.902;2023-02-24T10:01:39;20.90;;;3.13;;
4835;SDS011;66719;51.226;6.902;2023-02-24T10:06:47;14.73;;;3.27;;
4835;SDS011;66719;51.226;6.902;2023-02-24T10:15:04;19.93;;;3.00;;
4835;SDS011;66719;51.226;6.902;2023-02-24T10:17:51;20.00;;;3.10;;
4835;SDS011;66719;51.226;6.902;2023-02-24T10:20:23;15.23;;;3.37;;
4835;SDS011;66719;51.226;6.902;2023-02-24T10:23:18;23.07;;;3.23;;
4835;SDS011;66719;51.226;6.902;2023-02-24T10:26:02;22.17;;;4.23;;
4835;SDS011;66719;51.226;6.902;2023-02-24T10:31:29;18.20;;;3.70;;
4835;SDS011;66719;51.226;6.902;2023-02-24T10:34:07;16.80;;;3.10;;
4835;SDS011;66719;51.226;6.902;2023-02-24T10:36:36;18.67;;;3.43;;
4835;SDS011;66719;51.226;6.902;2023-02-24T10:39:14;21.13;;;4.60;;
4835;SDS011;66719;51.226;6.902;2023-02-24T10:41:45;14.37;;;3.17;;
4835;SDS011;66719;51.226;6.902;2023-02-24T10:44:23;17.13;;;3.03;;
4835;SDS011;66719;51.226;6.902;2023-02-24T10:47:02;16.97;;;3.47;;
4835;SDS011;66719;51.226;6.902;2023-02-24T10:49:43;22.00;;;3.10;;
4835;SDS011;66719;51.226;6.902;2023-02-24T10:52:42;22.10;;;3.97;;
4835;SDS011;66719;51.226;6.902;2023-02-24T10:55:30;21.23;;;4.70;;
4835;SDS011;66719;51.226;6.902;2023-02-24T11:01:12;18.43;;;4.17;;
4835;SDS011;66719;51.226;6.902;2023-02-24T11:03:53;24.67;;;4.60;;
4835;SDS011;66719;51.226;6.902;2023-02-24T11:06:28;17.10;;;4.53;;
4835;SDS011;66719;51.226;6.902;2023-02-24T11:09:20;23.67;;;4.63;;
4835;SDS011;66719;51.226;6.902;2023-02-24T11:12:04;22.13;;;5.40;;
4835;SDS011;66719;51.226;6.902;2023-02-24T11:15:02;20.67;;;4.70;;
4835;SDS011;66719;51.226;6.902;2023-02-24T11:17:54;24.43;;;5.10;;
4835;SDS011;66719;51.226;6.902;2023-02-24T11:23:19;24.30;;;4.53;;
4835;SDS011;66719;51.226;6.902;2023-02-24T11:25:50;19.40;;;4.60;;
4835;SDS011;66719;51.226;6.902;2023-02-24T11:39:15;20.93;;;6.67;;
4835;SDS011;66719;51.226;6.902;2023-02-24T11:41:52;22.97;;;5.10;;
4835;SDS011;66719;51.226;6.902;2023-02-24T11:44:44;24.33;;;5.30;;
4835;SDS011;66719;51.226;6.902;2023-02-24T11:47:15;18.97;;;4.60;;
4835;SDS011;66719;51.226;6.902;2023-02-24T11:49:50;20.67;;;5.77;;
4835;SDS011;66719;51.226;6.902;2023-02-24T11:52:26;20.63;;;4.63;;
4835;SDS011;66719;51.226;6.902;2023-02-24T11:54:59;26.23;;;6.20;;
4835;SDS011;66719;51.226;6.902;2023-02-24T11:57:37;26.17;;;5.67;;
4835;SDS011;66719;51.226;6.902;2023-02-24T12:00:15;19.40;;;4.80;;
4835;SDS011;66719;51.226;6.902;2023-02-24T12:02:50;16.70;;;5.13;;
4835;SDS011;66719;51.226;6.902;2023-02-24T12:05:30;19.83;;;5.00;;
4835;SDS011;66719;51.226;6.902;2023-02-24T12:10:35;23.33;;;5.23;;
4835;SDS011;66719;51.226;6.902;2023-02-24T12:15:41;20.23;;;5.43;;
4835;SDS011;66719;51.226;6.902;2023-02-24T12:23:56;19.43;;;5.20;;
4835;SDS011;66719;51.226;6.902;2023-02-24T12:26:34;21.20;;;5.10;;
4835;SDS011;66719;51.226;6.902;2023-02-24T12:40:57;20.37;;;4.80;;
4835;SDS011;66719;51.226;6.902;2023-02-24T12:43:35;24.80;;;5.20;;
4835;SDS011;66719;51.226;6.902;2023-02-24T12:54:38;18.63;;;5.03;;
4835;SDS011;66719;51.226;6.902;2023-02-24T13:03:07;20.30;;;4.73;;
4835;SDS011;66719;51.226;6.902;2023-02-24T13:05:52;20.13;;;5.07;;
4835;SDS011;66719;51.226;6.902;2023-02-24T13:19:39;22.10;;;5.53;;
4835;SDS011;66719;51.226;6.902;2023-02-24T13:24:58;30.07;;;6.13;;
4835;SDS011;66719;51.226;6.902;2023-02-24T13:27:33;20.93;;;6.40;;
4835;SDS011;66719;51.226;6.902;2023-02-24T13:32:38;15.10;;;4.63;;
4835;SDS011;66719;51.226;6.902;2023-02-24T13:37:40;21.57;;;5.10;;
4835;SDS011;66719;51.226;6.902;2023-02-24T13:45:32;21.47;;;5.90;;
4835;SDS011;66719;51.226;6.902;2023-02-24T13:56:45;20.97;;;4.53;;
4835;SDS011;66719;51.226;6.902;2023-02-24T14:04:58;19.87;;;4.90;;
4835;SDS011;66719;51.226;6.902;2023-02-24T14:07:30;25.13;;;5.83;;
4835;SDS011;66719;51.226;6.902;2023-02-24T14:10:02;23.80;;;5.57;;
4835;SDS011;66719;51.226;6.902;2023-02-24T14:12:38;16.00;;;4.90;;
4835;SDS011;66719;51.226;6.902;2023-02-24T14:15:18;18.30;;;5.70;;
4835;SDS011;66719;51.226;6.902;2023-02-24T14:17:58;22.73;;;5.33;;
4835;SDS011;66719;51.226;6.902;2023-02-24T14:20:29;24.90;;;6.60;;
4835;SDS011;66719;51.226;6.902;2023-02-24T14:23:00;20.13;;;4.90;;
4835;SDS011;66719;51.226;6.902;2023-02-24T14:25:28;24.23;;;5.17;;
4835;SDS011;66719;51.226;6.902;2023-02-24T14:27:59;15.97;;;5.50;;
4835;SDS011;66719;51.226;6.902;2023-02-24T14:33:04;19.73;;;5.60;;
4835;SDS011;66719;51.226;6.902;2023-02-24T14:38:02;17.00;;;5.30;;
4835;SDS011;66719;51.226;6.902;2023-02-24T14:40:30;26.33;;;6.13;;
4835;SDS011;66719;51.226;6.902;2023-02-24T14:42:57;18.20;;;5.27;;
4835;SDS011;66719;51.226;6.902;2023-02-24T14:45:25;26.33;;;5.60;;
4835;SDS011;66719;51.226;6.902;2023-02-24T14:47:53;25.90;;;5.60;;
4835;SDS011;66719;51.226;6.902;2023-02-24T14:50:26;17.77;;;4.80;;
4835;SDS011;66719;51.226;6.902;2023-02-24T14:53:01;23.67;;;4.90;;
4835;SDS011;66719;51.226;6.902;2023-02-24T14:55:34;19.43;;;5.47;;
4835;SDS011;66719;51.226;6.902;2023-02-24T15:00:46;20.07;;;5.27;;
4835;SDS011;66719;51.226;6.902;2023-02-24T15:03:23;21.30;;;5.77;;
4835;SDS011;66719;51.226;6.902;2023-02-24T15:05:56;19.80;;;4.97;;
4835;SDS011;66719;51.226;6.902;2023-02-24T15:08:36;23.40;;;5.73;;
4835;SDS011;66719;51.226;6.902;2023-02-24T15:16:11;21.80;;;5.63;;
4835;SDS011;66719;51.226;6.902;2023-02-24T15:18:59;26.50;;;6.33;;
4835;SDS011;66719;51.226;6.902;2023-02-24T15:21:28;24.50;;;5.67;;
4835;SDS011;66719;51.226;6.902;2023-02-24T15:23:57;25.33;;;5.90;;
4835;SDS011;66719;51.226;6.902;2023-02-24T15:26:30;22.70;;;6.27;;
4835;SDS011;66719;51.226;6.902;2023-02-24T15:29:02;21.20;;;6.60;;
4835;SDS011;66719;51.226;6.902;2023-02-24T15:31:38;19.73;;;6.30;;
4835;SDS011;66719;51.226;6.902;2023-02-24T15:34:12;25.80;;;6.60;;
4835;SDS011;66719;51.226;6.902;2023-02-24T15:36:45;18.33;;;5.70;;
4835;SDS011;66719;51.226;6.902;2023-02-24T15:39:20;19.80;;;6.93;;
4835;SDS011;66719;51.226;6.902;2023-02-24T15:41:51;19.90;;;5.67;;
4835;SDS011;66719;51.226;6.902;2023-02-24T15:44:31;19.47;;;6.40;;
4835;SDS011;66719;51.226;6.902;2023-02-24T15:46:59;27.50;;;7.37;;
4835;SDS011;66719;51.226;6.902;2023-02-24T15:49:46;20.23;;;7.50;;
4835;SDS011;66719;51.226;6.902;2023-02-24T15:52:12;20.80;;;6.87;;
4835;SDS011;66719;51.226;6.902;2023-02-24T15:54:40;20.17;;;7.17;;
4835;SDS011;66719;51.226;6.902;2023-02-24T15:57:09;28.20;;;9.37;;
4835;SDS011;66719;51.226;6.902;2023-02-24T15:59:39;23.43;;;8.90;;
4835;SDS011;66719;51.226;6.902;2023-02-24T16:02:14;21.60;;;8.30;;
4835;SDS011;66719;51.226;6.902;2023-02-24T16:04:43;25.73;;;8.30;;
4835;SDS011;66719;51.226;6.902;2023-02-24T16:07:10;29.80;;;9.17;;
4835;SDS011;66719;51.226;6.902;2023-02-24T16:09:42;23.93;;;8.53;;
4835;SDS011;66719;51.226;6.902;2023-02-24T16:12:11;22.63;;;9.33;;
4835;SDS011;66719;51.226;6.902;2023-02-24T16:14:40;24.57;;;8.93;;
4835;SDS011;66719;51.226;6.902;2023-02-24T16:17:16;29.90;;;7.80;;
4835;SDS011;66719;51.226;6.902;2023-02-24T16:19:51;22.90;;;8.70;;
4835;SDS011;66719;51.226;6.902;2023-02-24T16:22:17;23.50;;;7.97;;
4835;SDS011;66719;51.226;6.902;2023-02-24T16:24:44;22.87;;;9.80;;
4835;SDS011;66719;51.226;6.902;2023-02-24T16:27:14;24.23;;;8.40;;
4835;SDS011;66719;51.226;6.902;2023-02-24T16:29:42;25.27;;;8.30;;
4835;SDS011;66719;51.226;6.902;2023-02-24T16:32:12;24.07;;;8.50;;
4835;SDS011;66719;51.226;6.902;2023-02-24T16:34:39;22.77;;;8.30;;
4835;SDS011;66719;51.226;6.902;2023-02-24T16:37:13;26.37;;;8.90;;
4835;SDS011;66719;51.226;6.902;2023-02-24T16:39:43;25.63;;;8.80;;
4835;SDS011;66719;51.226;6.902;2023-02-24T16:42:10;31.73;;;10.20;;
4835;SDS011;66719;51.226;6.902;2023-02-24T16:44:37;26.90;;;9.47;;
4835;SDS011;66719;51.226;6.902;2023-02-24T16:47:04;25.63;;;10.23;;
4835;SDS011;66719;51.226;6.902;2023-02-24T16:49:32;24.17;;;10.50;;
4835;SDS011;66719;51.226;6.902;2023-02-24T16:51:58;27.90;;;12.10;;
4835;SDS011;66719;51.226;6.902;2023-02-24T16:54:25;25.80;;;12.33;;
4835;SDS011;66719;51.226;6.902;2023-02-24T16:56:55;30.50;;;12.40;;
4835;SDS011;66719;51.226;6.902;2023-02-24T16:59:22;26.20;;;12.00;;
4835;SDS011;66719;51.226;6.902;2023-02-24T17:01:52;30.30;;;12.30;;
4835;SDS011;66719;51.226;6.902;2023-02-24T17:04:19;26.70;;;10.90;;
4835;SDS011;66719;51.226;6.902;2023-02-24T17:06:47;30.13;;;13.77;;
4835;SDS011;66719;51.226;6.902;2023-02-24T17:09:13;23.40;;;11.97;;
4835;SDS011;66719;51.226;6.902;2023-02-24T17:11:41;30.50;;;13.47;;
4835;SDS011;66719;51.226;6.902;2023-02-24T17:14:14;27.73;;;13.10;;
4835;SDS011;66719;51.226;6.902;2023-02-24T17:16:43;27.93;;;12.70;;
4835;SDS011;66719;51.226;6.902;2023-02-24T17:19:10;26.33;;;12.67;;
4835;SDS011;66719;51.226;6.902;2023-02-24T17:21:38;33.40;;;12.67;;
4835;SDS011;66719;51.226;6.902;2023-02-24T17:24:17;29.17;;;12.73;;
4835;SDS011;66719;51.226;6.902;2023-02-24T17:26:45;28.40;;;12.63;;
4835;SDS011;66719;51.226;6.902;2023-02-24T17:29:12;30.67;;;13.67;;
4835;SDS011;66719;51.226;6.902;2023-02-24T17:31:39;26.43;;;11.10;;
4835;SDS011;66719;51.226;6.902;2023-02-24T17:34:07;27.83;;;11.97;;
4835;SDS011;66719;51.226;6.902;2023-02-24T17:36:34;26.23;;;12.00;;
4835;SDS011;66719;51.226;6.902;2023-02-24T17:39:01;25.10;;;12.80;;
4835;SDS011;66719;51.226;6.902;2023-02-24T17:41:27;39.13;;;20.50;;
4835;SDS011;66719;51.226;6.902;2023-02-24T17:43:54;28.10;;;12.03;;
4835;SDS011;66719;51.226;6.902;2023-02-24T17:46:20;27.20;;;13.50;;
4835;SDS011;66719;51.226;6.902;2023-02-24T17:48:47;27.83;;;11.60;;
4835;SDS011;66719;51.226;6.902;2023-02-24T17:51:14;30.47;;;11.37;;
4835;SDS011;66719;51.226;6.902;2023-02-24T17:53:42;41.20;;;21.47;;
4835;SDS011;66719;51.226;6.902;2023-02-24T17:56:09;35.47;;;11.57;;
4835;SDS011;66719;51.226;6.902;2023-02-24T17:58:37;45.00;;;17.60;;
4835;SDS011;66719;51.226;6.902;2023-02-24T18:01:04;29.60;;;12.90;;
4835;SDS011;66719;51.226;6.902;2023-02-24T18:03:32;34.47;;;15.20;;
4835;SDS011;66719;51.226;6.902;2023-02-24T18:06:00;29.50;;;11.90;;
4835;SDS011;66719;51.226;6.902;2023-02-24T18:08:30;25.73;;;6.67;;
4835;SDS011;66719;51.226;6.902;2023-02-24T18:10:58;23.50;;;7.30;;
4835;SDS011;66719;51.226;6.902;2023-02-24T18:13:26;19.30;;;6.30;;